createdAt,value
2023-03-28T00:02:29.308Z,0.70
2023-03-28T00:05:00.137Z,0.68
2023-03-28T00:07:29.756Z,0.66
2023-03-28T00:09:59.197Z,0.68
2023-03-28T00:12:29.959Z,0.62
2023-03-28T00:15:00.837Z,0.64
2023-03-28T00:17:31.499Z,0.61
2023-03-28T00:20:02.788Z,0.56
2023-03-28T00:22:31.194Z,0.54
2023-03-28T00:25:01.224Z,0.54
2023-03-28T00:27:30.301Z,0.49
2023-03-28T00:29:58.841Z,0.45
2023-03-28T00:32:27.451Z,0.42
2023-03-28T00:34:56.289Z,0.41
2023-03-28T00:37:25.605Z,0.37
2023-03-28T00:39:54.019Z,0.38
2023-03-28T00:42:24.926Z,0.41
2023-03-28T00:44:54.693Z,0.45
2023-03-28T00:47:33.652Z,0.51
2023-03-28T00:50:07.052Z,0.55
2023-03-28T00:52:39.967Z,0.58
2023-03-28T00:55:14.473Z,0.59
2023-03-28T00:57:45.009Z,0.59
2023-03-28T01:00:14.351Z,0.64
2023-03-28T01:02:45.918Z,0.66
2023-03-28T01:05:14.993Z,0.69
2023-03-28T01:07:46.329Z,0.68
2023-03-28T01:10:17.141Z,0.68
2023-03-28T01:12:47.216Z,0.64
2023-03-28T01:15:15.723Z,0.62
2023-03-28T01:17:48.267Z,0.58
2023-03-28T01:20:27.014Z,0.55
2023-03-28T01:23:11.658Z,0.52
2023-03-28T01:26:06.572Z,0.51
2023-03-28T01:31:44.990Z,0.52
2023-03-28T01:34:40.876Z,0.48
2023-03-28T01:37:26.322Z,0.44
2023-03-28T01:40:06.041Z,0.45
2023-03-28T01:42:42.136Z,0.46
2023-03-28T01:45:15.690Z,0.51
2023-03-28T01:47:50.854Z,0.54
2023-03-28T01:50:27.431Z,0.59
2023-03-28T01:53:00.510Z,0.65
2023-03-28T01:55:31.931Z,0.69
2023-03-28T01:58:16.043Z,0.69
2023-03-28T02:00:48.077Z,0.72
2023-03-28T02:03:19.794Z,0.75
2023-03-28T02:05:48.595Z,0.76
2023-03-28T02:08:18.797Z,0.79
2023-03-28T02:10:50.246Z,0.79
2023-03-28T02:13:20.359Z,0.80
2023-03-28T02:15:52.621Z,0.85
2023-03-28T02:18:24.998Z,0.87
2023-03-28T02:20:54.153Z,0.86
2023-03-28T02:23:26.230Z,0.90
2023-03-28T02:25:55.155Z,0.92
2023-03-28T02:28:24.282Z,0.90
2023-03-28T02:30:53.551Z,0.92
2023-03-28T02:33:35.051Z,0.90
2023-03-28T02:36:11.885Z,0.93
2023-03-28T02:38:48.703Z,0.94
2023-03-28T02:41:24.517Z,0.90
2023-03-28T02:44:00.742Z,0.90
2023-03-28T02:46:30.701Z,0.90
2023-03-28T02:49:18.531Z,0.87
2023-03-28T02:51:51.576Z,0.86
2023-03-28T02:54:31.094Z,0.86
2023-03-28T02:57:08.206Z,0.80
2023-03-28T02:59:43.345Z,0.76
2023-03-28T03:02:17.917Z,0.70
2023-03-28T03:04:47.074Z,0.65
2023-03-28T03:07:17.980Z,0.62
2023-03-28T03:09:47.477Z,0.64
2023-03-28T03:12:15.638Z,0.64
2023-03-28T03:14:45.009Z,0.62
2023-03-28T03:17:13.414Z,0.65
2023-03-28T03:19:43.640Z,0.65
2023-03-28T03:22:20.824Z,0.64
2023-03-28T03:24:51.625Z,0.61
2023-03-28T03:27:20.694Z,0.59
2023-03-28T03:29:49.234Z,0.58
2023-03-28T03:32:17.586Z,0.54
2023-03-28T03:34:45.780Z,0.51
2023-03-28T03:37:14.372Z,0.44
2023-03-28T03:39:42.489Z,0.37
2023-03-28T03:42:13.647Z,0.31
2023-03-28T03:44:41.789Z,0.25
2023-03-28T03:47:10.007Z,0.19
2023-03-28T03:49:38.145Z,0.13
2023-03-28T03:52:06.781Z,0.07
2023-03-28T03:54:38.312Z,0.04
2023-03-28T03:57:06.533Z,-0.03
2023-03-28T03:59:37.088Z,-0.10
2023-03-28T04:02:05.478Z,-0.14
2023-03-28T04:04:34.077Z,-0.23
2023-03-28T04:07:02.531Z,-0.28
2023-03-28T04:09:30.929Z,-0.33
2023-03-28T04:11:59.346Z,-0.38
2023-03-28T04:14:27.614Z,-0.40
2023-03-28T04:16:57.802Z,-0.40
2023-03-28T04:19:27.499Z,-0.40
2023-03-28T04:21:57.376Z,-0.38
2023-03-28T04:24:26.149Z,-0.41
2023-03-28T04:26:56.156Z,-0.42
2023-03-28T04:29:30.859Z,-0.42
2023-03-28T04:32:00.405Z,-0.45
2023-03-28T04:34:30.906Z,-0.48
2023-03-28T04:37:01.717Z,-0.52
2023-03-28T04:39:31.040Z,-0.55
2023-03-28T04:42:01.966Z,-0.54
2023-03-28T04:44:30.563Z,-0.58
2023-03-28T04:47:00.365Z,-0.60
2023-03-28T04:49:30.984Z,-0.60
2023-03-28T04:51:59.483Z,-0.58
2023-03-28T04:54:28.036Z,-0.62
2023-03-28T04:56:56.288Z,-0.61
2023-03-28T04:59:24.366Z,-0.61
2023-03-28T05:01:52.781Z,-0.66
2023-03-28T05:04:23.684Z,-0.48
2023-03-28T05:06:53.142Z,-0.35
2023-03-28T05:09:22.603Z,-0.15
2023-03-28T05:11:52.329Z,-0.09
2023-03-28T05:14:20.802Z,-0.07
2023-03-28T05:16:48.884Z,0.10
2023-03-28T05:19:18.183Z,0.15
2023-03-28T05:21:47.876Z,0.21
2023-03-28T05:24:16.376Z,0.18
2023-03-28T05:26:44.985Z,0.18
2023-03-28T05:29:13.298Z,0.10
2023-03-28T05:31:41.466Z,0.11
2023-03-28T05:34:09.564Z,0.22
2023-03-28T05:36:38.300Z,0.24
2023-03-28T05:39:09.491Z,0.14
2023-03-28T05:41:37.938Z,0.01
2023-03-28T05:44:13.021Z,-0.07
2023-03-28T05:46:44.566Z,-0.10
2023-03-28T05:49:13.045Z,-0.17
2023-03-28T05:51:54.061Z,-0.20
2023-03-28T05:54:23.901Z,0.01
2023-03-28T05:56:53.756Z,0.44
2023-03-28T05:59:24.919Z,0.83
2023-03-28T06:01:55.853Z,1.24
2023-03-28T06:04:28.239Z,1.64
2023-03-28T06:06:58.010Z,1.91
2023-03-28T06:09:31.448Z,2.20
2023-03-28T06:12:01.628Z,2.48
2023-03-28T06:14:31.975Z,2.68
2023-03-28T06:17:06.821Z,2.84
2023-03-28T06:19:38.825Z,2.95
2023-03-28T06:22:09.577Z,3.06
2023-03-28T06:24:42.404Z,3.18
2023-03-28T06:27:11.661Z,3.33
2023-03-28T06:29:42.839Z,3.50
2023-03-28T06:32:12.634Z,3.73
2023-03-28T06:34:42.338Z,3.92
2023-03-28T06:37:11.443Z,4.15
2023-03-28T06:39:43.648Z,4.33
2023-03-28T06:42:12.069Z,4.53
2023-03-28T06:44:40.847Z,4.64
2023-03-28T06:47:10.322Z,4.66
2023-03-28T06:49:39.277Z,4.68
2023-03-28T06:52:08.400Z,4.84
2023-03-28T06:54:36.498Z,5.01
2023-03-28T06:57:06.437Z,5.19
2023-03-28T06:59:35.485Z,5.42
2023-03-28T07:02:06.415Z,5.55
2023-03-28T07:04:37.418Z,5.77
2023-03-28T07:07:05.934Z,5.97
2023-03-28T07:09:35.648Z,6.25
2023-03-28T07:12:07.604Z,6.61
2023-03-28T07:14:37.192Z,6.94
2023-03-28T07:17:06.718Z,7.17
2023-03-28T07:19:35.070Z,7.41
2023-03-28T07:22:04.271Z,7.44
2023-03-28T07:24:32.473Z,7.69
2023-03-28T07:27:14.998Z,7.96
2023-03-28T07:29:47.245Z,8.00
2023-03-28T07:32:16.391Z,8.14
2023-03-28T07:34:47.417Z,8.31
2023-03-28T07:37:15.981Z,8.67
2023-03-28T07:39:48.154Z,8.90
2023-03-28T07:42:16.918Z,8.85
2023-03-28T07:44:50.307Z,8.73
2023-03-28T07:47:23.229Z,8.88
2023-03-28T07:49:51.263Z,8.85
2023-03-28T07:52:20.776Z,8.88
2023-03-28T07:54:50.320Z,9.13
2023-03-28T07:57:18.389Z,9.52
2023-03-28T07:59:51.813Z,9.67
2023-03-28T08:02:21.872Z,9.64
2023-03-28T08:04:53.634Z,9.79
2023-03-28T08:07:26.186Z,9.82
2023-03-28T08:09:59.057Z,9.92
2023-03-28T08:12:28.313Z,10.08
2023-03-28T08:14:58.635Z,10.18
2023-03-28T08:17:27.555Z,10.10
2023-03-28T08:19:57.241Z,10.03
2023-03-28T08:22:26.609Z,10.02
2023-03-28T08:24:57.080Z,10.37
2023-03-28T08:27:28.312Z,10.52
2023-03-28T08:30:00.056Z,10.37
2023-03-28T08:32:28.291Z,10.36
2023-03-28T08:34:57.968Z,10.33
2023-03-28T08:37:26.150Z,10.59
2023-03-28T08:39:58.988Z,10.88
2023-03-28T08:42:43.803Z,10.83
2023-03-28T08:45:42.201Z,10.56
2023-03-28T08:48:23.224Z,10.70
2023-03-28T08:50:54.815Z,11.05
2023-03-28T08:53:31.736Z,10.88
2023-03-28T08:56:12.230Z,10.61
2023-03-28T08:58:47.437Z,10.39
2023-03-28T09:01:21.124Z,10.26
2023-03-28T09:03:50.211Z,10.02
2023-03-28T09:06:27.457Z,10.02
2023-03-28T09:09:05.708Z,10.13
2023-03-28T09:11:42.786Z,10.26
2023-03-28T09:14:21.433Z,10.12
2023-03-28T09:17:03.291Z,9.92
2023-03-28T09:19:48.232Z,9.88
2023-03-28T09:22:28.004Z,10.01
2023-03-28T09:25:02.301Z,9.98
2023-03-28T09:27:48.531Z,10.03
2023-03-28T09:30:22.262Z,9.98
2023-03-28T09:32:55.555Z,10.16
2023-03-28T09:35:24.271Z,10.26
2023-03-28T09:37:55.907Z,10.37
2023-03-28T09:40:25.465Z,10.29
2023-03-28T09:43:05.130Z,10.15
2023-03-28T09:45:42.298Z,10.32
2023-03-28T09:48:22.060Z,10.27
2023-03-28T09:50:50.689Z,10.47
2023-03-28T09:53:26.370Z,10.57
2023-03-28T09:56:04.263Z,10.60
2023-03-28T09:58:49.882Z,10.56
2023-03-28T10:01:28.517Z,10.52
2023-03-28T10:03:58.478Z,10.53
2023-03-28T10:06:29.092Z,10.60
2023-03-28T10:09:19.495Z,10.55
2023-03-28T10:11:50.220Z,10.29
2023-03-28T10:14:33.504Z,10.42
2023-03-28T10:17:03.956Z,10.26
2023-03-28T10:19:38.158Z,10.18
2023-03-28T10:22:08.889Z,10.52
2023-03-28T10:24:39.809Z,10.29
2023-03-28T10:27:13.276Z,10.10
2023-03-28T10:29:42.728Z,10.26
2023-03-28T10:32:13.854Z,10.56
2023-03-28T10:34:44.848Z,10.74
2023-03-28T10:37:23.740Z,10.81
2023-03-28T10:40:01.807Z,10.26
2023-03-28T10:42:41.042Z,10.03
2023-03-28T10:45:22.134Z,9.85
2023-03-28T10:47:53.165Z,9.47
2023-03-28T10:50:28.926Z,9.30
2023-03-28T10:53:10.659Z,8.96
2023-03-28T10:55:41.005Z,9.06
2023-03-28T10:58:13.657Z,9.57
2023-03-28T11:00:44.198Z,9.85
2023-03-28T11:03:18.670Z,9.97
2023-03-28T11:06:07.999Z,10.30
2023-03-28T11:08:43.992Z,10.77
2023-03-28T11:11:22.150Z,11.21
2023-03-28T11:13:54.971Z,11.64
2023-03-28T11:16:33.985Z,11.59
2023-03-28T11:19:11.399Z,11.36
2023-03-28T11:21:45.678Z,11.22
2023-03-28T11:24:24.116Z,10.98
2023-03-28T11:27:12.414Z,10.97
2023-03-28T11:29:49.204Z,11.02
2023-03-28T11:32:21.377Z,10.95
2023-03-28T11:35:00.749Z,10.47
2023-03-28T11:37:37.752Z,9.88
2023-03-28T11:40:15.153Z,9.46
2023-03-28T11:42:47.846Z,9.13
2023-03-28T11:45:37.511Z,8.88
2023-03-28T11:48:24.062Z,8.71
2023-03-28T11:51:01.221Z,8.76
2023-03-28T11:53:33.775Z,8.72
2023-03-28T11:56:08.435Z,8.65
2023-03-28T11:58:41.098Z,8.68
2023-03-28T12:01:11.143Z,8.96
2023-03-28T12:03:48.213Z,9.44
2023-03-28T12:06:22.125Z,9.64
2023-03-28T12:08:56.450Z,9.98
2023-03-28T12:11:28.300Z,10.27
2023-03-28T12:14:11.536Z,10.57
2023-03-28T12:16:45.123Z,10.88
2023-03-28T12:19:19.459Z,10.97
2023-03-28T12:21:52.812Z,10.92
2023-03-28T12:24:27.869Z,10.32
2023-03-28T12:27:04.050Z,9.61
2023-03-28T12:29:37.335Z,9.18
2023-03-28T12:32:23.031Z,9.05
2023-03-28T12:34:56.984Z,8.92
2023-03-28T12:37:30.069Z,8.52
2023-03-28T12:40:13.983Z,8.21
2023-03-28T12:42:43.066Z,8.19
2023-03-28T12:45:16.368Z,8.20
2023-03-28T12:47:46.314Z,8.23
2023-03-28T12:50:23.546Z,8.30
2023-03-28T12:52:53.757Z,8.27
2023-03-28T12:55:47.616Z,8.19
2023-03-28T12:58:27.697Z,8.16
2023-03-28T13:01:22.336Z,8.06
2023-03-28T13:04:01.438Z,7.90
2023-03-28T13:06:42.137Z,7.78
2023-03-28T13:09:22.641Z,7.78
2023-03-28T13:11:57.797Z,7.73
2023-03-28T13:14:33.394Z,7.66
2023-03-28T13:17:03.028Z,7.69
2023-03-28T13:19:58.991Z,7.75
2023-03-28T13:22:31.288Z,7.78
2023-03-28T13:25:27.409Z,7.72
2023-03-28T13:27:58.952Z,7.68
2023-03-28T13:30:31.209Z,7.68
2023-03-28T13:33:04.187Z,7.62
2023-03-28T13:36:12.636Z,7.59
2023-03-28T13:38:48.835Z,7.48
2023-03-28T13:41:55.420Z,7.47
2023-03-28T13:44:31.065Z,7.40
2023-03-28T13:47:00.558Z,7.40
2023-03-28T13:49:48.213Z,7.45
2023-03-28T13:52:21.277Z,7.51
2023-03-28T13:54:54.821Z,7.61
2023-03-28T13:57:26.070Z,7.72
2023-03-28T13:59:58.444Z,7.75
2023-03-28T14:02:37.693Z,7.72
2023-03-28T14:05:20.132Z,7.73
2023-03-28T14:07:48.567Z,7.69
2023-03-28T14:10:28.786Z,7.68
2023-03-28T14:13:01.005Z,7.59
2023-03-28T14:15:32.148Z,7.54
2023-03-28T14:18:01.866Z,7.55
2023-03-28T14:20:30.250Z,7.59
2023-03-28T14:23:01.254Z,7.58
2023-03-28T14:25:30.824Z,7.56
2023-03-28T14:28:08.516Z,7.50
2023-03-28T14:30:42.283Z,7.44
2023-03-28T14:33:18.857Z,7.42
2023-03-28T14:35:57.516Z,7.38
2023-03-28T14:38:32.126Z,7.38
2023-03-28T14:41:08.843Z,7.42
2023-03-28T14:43:39.254Z,7.48
2023-03-28T14:46:10.760Z,7.51
2023-03-28T14:48:39.160Z,7.54
2023-03-28T14:51:08.835Z,7.59
2023-03-28T14:53:39.274Z,7.62
2023-03-28T14:56:10.473Z,7.68
2023-03-28T14:58:42.969Z,7.66
2023-03-28T15:01:21.955Z,7.69
2023-03-28T15:03:53.275Z,7.66
2023-03-28T15:06:22.260Z,7.63
2023-03-28T15:08:51.514Z,7.65
2023-03-28T15:11:23.434Z,7.65
2023-03-28T15:13:52.933Z,7.63
2023-03-28T15:16:24.375Z,7.55
2023-03-28T15:19:00.345Z,7.51
2023-03-28T15:21:28.566Z,7.42
2023-03-28T15:23:59.956Z,7.36
2023-03-28T15:26:31.797Z,7.25
2023-03-28T15:29:00.249Z,7.17
2023-03-28T15:31:31.636Z,7.10
2023-03-28T15:34:00.072Z,7.03
2023-03-28T15:36:32.239Z,6.97
2023-03-28T15:39:02.772Z,6.86
2023-03-28T15:41:46.595Z,6.80
2023-03-28T15:44:27.509Z,6.75
2023-03-28T15:47:06.909Z,6.65
2023-03-28T15:49:39.555Z,6.63
2023-03-28T15:52:17.415Z,6.65
2023-03-28T15:54:52.397Z,6.66
2023-03-28T15:57:23.894Z,6.72
2023-03-28T15:59:55.396Z,6.79
2023-03-28T16:02:33.659Z,6.89
2023-03-28T16:05:03.850Z,6.97
2023-03-28T16:07:37.220Z,7.00
2023-03-28T16:10:10.979Z,7.10
2023-03-28T16:12:39.112Z,7.11
2023-03-28T16:15:13.579Z,7.15
2023-03-28T16:17:44.875Z,7.14
2023-03-28T16:20:16.169Z,7.15
2023-03-28T16:22:44.653Z,7.18
2023-03-28T16:25:17.317Z,7.15
2023-03-28T16:27:45.813Z,7.13
2023-03-28T16:30:20.241Z,7.07
2023-03-28T16:32:53.237Z,7.07
2023-03-28T16:35:22.784Z,6.97
2023-03-28T16:37:51.375Z,6.93
2023-03-28T16:40:19.946Z,6.87
2023-03-28T16:42:47.933Z,6.86
2023-03-28T16:45:18.016Z,6.79
2023-03-28T16:47:46.020Z,6.69
2023-03-28T16:50:16.486Z,6.62
2023-03-28T16:52:44.679Z,6.50
2023-03-28T16:55:15.905Z,6.38
2023-03-28T16:57:44.843Z,6.29
2023-03-28T17:00:20.918Z,6.18
2023-03-28T17:02:49.878Z,6.10
2023-03-28T17:05:24.948Z,6.01
2023-03-28T17:07:53.050Z,5.91
2023-03-28T17:10:21.796Z,5.84
2023-03-28T17:12:54.446Z,5.80
2023-03-28T17:15:25.022Z,5.78
2023-03-28T17:17:56.653Z,5.71
2023-03-28T17:20:29.243Z,5.63
2023-03-28T17:22:57.615Z,5.55
2023-03-28T17:25:26.593Z,5.49
2023-03-28T17:27:57.876Z,5.45
2023-03-28T17:30:28.140Z,5.45
2023-03-28T17:32:57.576Z,5.43
2023-03-28T17:35:38.196Z,5.35
2023-03-28T17:38:10.441Z,5.32
2023-03-28T17:40:41.149Z,5.25
2023-03-28T17:43:11.793Z,5.15
2023-03-28T17:45:40.888Z,5.07
2023-03-28T17:48:10.260Z,4.94
2023-03-28T17:50:40.221Z,4.87
2023-03-28T17:53:08.353Z,4.80
2023-03-28T17:55:37.094Z,4.76
2023-03-28T17:58:05.348Z,4.70
2023-03-28T18:00:33.510Z,4.61
2023-03-28T18:03:01.659Z,4.54
2023-03-28T18:05:30.482Z,4.45
2023-03-28T18:08:00.293Z,4.39
2023-03-28T18:10:31.630Z,4.32
2023-03-28T18:13:02.582Z,4.29
2023-03-28T18:15:31.353Z,4.29
2023-03-28T18:18:01.804Z,4.26
2023-03-28T18:20:31.151Z,4.20
2023-03-28T18:23:00.985Z,4.18
2023-03-28T18:25:32.368Z,4.12
2023-03-28T18:28:05.528Z,4.13
2023-03-28T18:30:33.809Z,4.15
2023-03-28T18:33:02.119Z,4.19
2023-03-28T18:35:30.891Z,4.20
2023-03-28T18:38:00.487Z,4.22
2023-03-28T18:40:28.906Z,4.23
2023-03-28T18:42:58.858Z,4.22
2023-03-28T18:45:29.348Z,4.26
2023-03-28T18:47:57.953Z,4.26
2023-03-28T18:50:27.224Z,4.25
2023-03-28T18:52:55.338Z,4.20
2023-03-28T18:55:24.853Z,4.13
2023-03-28T18:57:58.213Z,4.10
2023-03-28T19:00:32.323Z,4.03
2023-03-28T19:03:03.016Z,4.06
2023-03-28T19:05:35.441Z,4.03
2023-03-28T19:08:04.104Z,4.03
2023-03-28T19:10:36.774Z,4.05
2023-03-28T19:13:04.796Z,4.05
2023-03-28T19:15:33.597Z,4.08
2023-03-28T19:18:03.001Z,4.10
2023-03-28T19:20:32.249Z,4.09
2023-03-28T19:23:01.697Z,4.05
2023-03-28T19:25:30.187Z,4.02
2023-03-28T19:27:59.898Z,4.01
2023-03-28T19:30:30.446Z,3.97
2023-03-28T19:32:58.829Z,3.94
2023-03-28T19:35:28.088Z,3.89
2023-03-28T19:37:58.422Z,3.87
2023-03-28T19:40:27.686Z,3.82
2023-03-28T19:42:58.661Z,3.81
2023-03-28T19:45:29.344Z,3.74
2023-03-28T19:47:58.041Z,3.70
2023-03-28T19:50:28.764Z,3.68
2023-03-28T19:52:57.150Z,3.64
2023-03-28T19:55:26.657Z,3.59
2023-03-28T19:57:57.417Z,3.54
2023-03-28T20:00:28.724Z,3.53
2023-03-28T20:02:58.520Z,3.54
2023-03-28T20:05:27.574Z,3.54
2023-03-28T20:07:56.741Z,3.54
2023-03-28T20:10:24.910Z,3.53
2023-03-28T20:12:55.832Z,3.44
2023-03-28T20:15:25.357Z,3.39
2023-03-28T20:17:53.966Z,3.31
2023-03-28T20:20:24.966Z,3.22
2023-03-28T20:23:00.068Z,3.10
2023-03-28T20:25:31.585Z,3.05
2023-03-28T20:27:59.987Z,2.96
2023-03-28T20:30:31.636Z,2.96
2023-03-28T20:33:02.146Z,2.95
2023-03-28T20:35:34.326Z,2.98
2023-03-28T20:38:02.859Z,2.95
2023-03-28T20:40:31.164Z,2.89
2023-03-28T20:43:02.130Z,2.89
2023-03-28T20:45:30.167Z,2.88
2023-03-28T20:48:06.358Z,2.80
2023-03-28T20:50:37.810Z,2.78
2023-03-28T20:53:07.893Z,2.72
2023-03-28T20:55:36.653Z,2.68
2023-03-28T20:58:04.955Z,2.71
2023-03-28T21:00:34.061Z,2.74
2023-03-28T21:03:03.733Z,2.78
2023-03-28T21:05:33.304Z,2.81
2023-03-28T21:08:04.378Z,2.88
2023-03-28T21:10:33.367Z,2.89
2023-03-28T21:13:01.479Z,2.89
2023-03-28T21:15:30.613Z,2.88
2023-03-28T21:17:59.377Z,2.88
2023-03-28T21:20:27.768Z,2.89
2023-03-28T21:22:55.868Z,2.91
2023-03-28T21:25:25.316Z,2.93
2023-03-28T21:27:53.398Z,2.96
2023-03-28T21:30:22.333Z,2.99
2023-03-28T21:32:50.893Z,3.01
2023-03-28T21:35:20.039Z,3.05
2023-03-28T21:37:49.571Z,3.03
2023-03-28T21:40:18.095Z,3.06
2023-03-28T21:42:50.269Z,3.06
2023-03-28T21:45:18.490Z,3.06
2023-03-28T21:47:47.555Z,3.05
2023-03-28T21:50:19.066Z,3.06
2023-03-28T21:52:47.265Z,3.05
2023-03-28T21:55:16.690Z,3.02
2023-03-28T21:57:45.017Z,3.01
2023-03-28T22:00:17.887Z,2.98
2023-03-28T22:02:47.290Z,2.93
2023-03-28T22:05:28.644Z,2.85
2023-03-28T22:07:58.145Z,2.84
2023-03-28T22:10:29.581Z,2.82
2023-03-28T22:12:59.868Z,2.78
2023-03-28T22:15:31.516Z,2.81
2023-03-28T22:17:59.769Z,2.82
2023-03-28T22:20:28.984Z,2.78
2023-03-28T22:23:01.278Z,2.77
2023-03-28T22:25:35.686Z,2.70
2023-03-28T22:28:06.088Z,2.65
2023-03-28T22:30:36.690Z,2.62
2023-03-28T22:33:05.542Z,2.58
2023-03-28T22:35:34.963Z,2.54
2023-03-28T22:38:03.537Z,2.50
2023-03-28T22:40:31.947Z,2.48
2023-03-28T22:43:00.212Z,2.48
2023-03-28T22:45:28.941Z,2.47
2023-03-28T22:48:01.825Z,2.44
2023-03-28T22:50:33.552Z,2.41
2023-03-28T22:53:02.527Z,2.34
2023-03-28T22:55:30.780Z,2.30
2023-03-28T22:57:58.913Z,2.23
2023-03-28T23:00:27.170Z,2.20
2023-03-28T23:02:56.202Z,2.17
2023-03-28T23:05:26.111Z,2.12
2023-03-28T23:07:54.931Z,2.07
2023-03-28T23:10:24.848Z,2.02
2023-03-28T23:12:53.976Z,1.99
2023-03-28T23:15:22.010Z,2.02
2023-03-28T23:17:50.405Z,2.06
2023-03-28T23:20:19.810Z,2.09
2023-03-28T23:22:49.979Z,2.10
2023-03-28T23:25:20.120Z,2.14
2023-03-28T23:27:54.096Z,2.16
2023-03-28T23:30:22.164Z,2.10
2023-03-28T23:32:50.710Z,2.10
2023-03-28T23:35:19.519Z,2.10
2023-03-28T23:37:53.101Z,2.06
2023-03-28T23:40:24.445Z,2.05
2023-03-28T23:42:54.037Z,2.03
2023-03-28T23:45:23.734Z,2.05
2023-03-28T23:47:52.879Z,2.05
2023-03-28T23:50:21.016Z,2.09
2023-03-28T23:52:50.448Z,2.05
2023-03-28T23:55:18.530Z,2.03
2023-03-28T23:57:47.245Z,2.05
